Time;durP1;ratioP1;P1;durP2;ratioP2;P2;SDS_P1;SDS_P2;PMS_P1;PMS_P2;Temp;Humidity;BMP_temperature;BMP_pressure;BME280_temperature;BME280_humidity;BME280_pressure;Samples;Min_cycle;Max_cycle;Signal;HPM_P1;HPM_P2
2021/07/11 00:01:02;;;;;;;4.47;4.07;;;;;;;;;;467457;252;27546;-73
2021/07/11 00:03:05;;;;;;;3.30;3.10;;;;;;;;;;467452;252;27540;-73
2021/07/11 00:05:07;;;;;;;3.13;2.93;;;;;;;;;;467443;252;27534;-73
2021/07/11 00:07:11;;;;;;;3.37;3.07;;;;;;;;;;467458;253;27546;-72
2021/07/11 00:09:12;;;;;;;3.27;3.07;;;;;;;;;;467291;254;27538;-73
2021/07/11 00:11:13;;;;;;;3.60;3.30;;;;;;;;;;467409;252;27557;-72
2021/07/11 00:13:15;;;;;;;2.90;2.70;;;;;;;;;;467436;252;27550;-73
2021/07/11 00:15:17;;;;;;;3.73;3.40;;;;;;;;;;467470;252;27478;-73
2021/07/11 00:17:19;;;;;;;4.90;3.30;;;;;;;;;;467438;252;27653;-73
2021/07/11 00:19:21;;;;;;;3.60;3.40;;;;;;;;;;467432;252;27555;-72
2021/07/11 00:21:24;;;;;;;3.40;3.10;;;;;;;;;;467449;252;27560;-72
2021/07/11 00:23:26;;;;;;;3.20;3.00;;;;;;;;;;467458;252;27494;-73
2021/07/11 00:25:28;;;;;;;3.10;2.90;;;;;;;;;;467473;252;27563;-72
2021/07/11 00:27:30;;;;;;;2.83;2.63;;;;;;;;;;467469;252;27657;-73
2021/07/11 00:29:32;;;;;;;3.30;3.10;;;;;;;;;;467448;252;27550;-73
2021/07/11 00:31:34;;;;;;;2.93;2.73;;;;;;;;;;467434;252;27562;-72
2021/07/11 00:33:36;;;;;;;3.00;2.80;;;;;;;;;;473547;251;27457;-72
2021/07/11 00:35:38;;;;;;;4.17;3.20;;;;;;;;;;472138;249;27658;-72
2021/07/11 00:37:41;;;;;;;2.87;2.67;;;;;;;;;;472105;249;27570;-73
2021/07/11 00:39:43;;;;;;;3.13;2.93;;;;;;;;;;474648;247;27441;-72
2021/07/11 00:41:45;;;;;;;2.87;2.67;;;;;;;;;;489469;242;27605;-72
2021/07/11 00:43:47;;;;;;;3.30;3.00;;;;;;;;;;489442;242;27635;-72
2021/07/11 00:45:49;;;;;;;3.37;3.07;;;;;;;;;;489451;242;27618;-73
2021/07/11 00:47:51;;;;;;;3.40;3.20;;;;;;;;;;489457;242;27510;-73
2021/07/11 00:49:53;;;;;;;3.00;2.80;;;;;;;;;;489455;242;27567;-72
2021/07/11 00:51:55;;;;;;;3.10;2.80;;;;;;;;;;489444;242;27535;-72
2021/07/11 00:53:57;;;;;;;2.90;2.70;;;;;;;;;;489468;242;27487;-72
2021/07/11 00:56:00;;;;;;;2.43;2.33;;;;;;;;;;489461;242;27476;-73
2021/07/11 00:58:02;;;;;;;3.03;2.83;;;;;;;;;;489466;242;27590;-72
2021/07/11 01:00:04;;;;;;;3.50;3.20;;;;;;;;;;489434;242;27473;-73
2021/07/11 01:02:06;;;;;;;2.80;2.60;;;;;;;;;;489426;242;27508;-72
2021/07/11 01:04:08;;;;;;;2.80;2.60;;;;;;;;;;489426;242;27551;-73
2021/07/11 01:06:10;;;;;;;3.40;3.10;;;;;;;;;;489429;242;27479;-73
2021/07/11 01:08:12;;;;;;;3.07;2.87;;;;;;;;;;489444;242;27474;-73
2021/07/11 01:10:14;;;;;;;3.23;3.03;;;;;;;;;;489465;242;27526;-73
2021/07/11 01:12:16;;;;;;;2.97;2.77;;;;;;;;;;489436;242;27563;-73
2021/07/11 01:14:19;;;;;;;2.53;2.33;;;;;;;;;;489490;242;27491;-73
2021/07/11 01:16:21;;;;;;;2.97;2.77;;;;;;;;;;489464;242;27523;-73
2021/07/11 01:18:23;;;;;;;3.03;2.83;;;;;;;;;;489465;242;27638;-73
2021/07/11 01:20:25;;;;;;;2.97;2.77;;;;;;;;;;489448;242;27538;-74
2021/07/11 01:22:27;;;;;;;2.50;2.33;;;;;;;;;;489450;243;27518;-73
2021/07/11 01:24:30;;;;;;;2.80;2.60;;;;;;;;;;489450;242;27514;-73
2021/07/11 01:26:33;;;;;;;2.63;2.43;;;;;;;;;;489377;242;27557;-73
2021/07/11 01:28:33;;;;;;;2.40;2.30;;;;;;;;;;489336;242;27614;-73
2021/07/11 01:30:35;;;;;;;4.50;3.00;;;;;;;;;;489443;242;27531;-73
2021/07/11 01:32:38;;;;;;;3.17;2.90;;;;;;;;;;489484;242;27599;-73
2021/07/11 01:34:40;;;;;;;2.77;2.67;;;;;;;;;;471609;251;27534;-73
2021/07/11 01:36:42;;;;;;;3.30;3.00;;;;;;;;;;472201;252;27447;-74
2021/07/11 01:38:44;;;;;;;3.00;2.70;;;;;;;;;;478293;249;27512;-73
2021/07/11 01:40:46;;;;;;;3.50;2.77;;;;;;;;;;478299;248;27754;-73
2021/07/11 01:42:48;;;;;;;4.47;3.07;;;;;;;;;;478289;248;27519;-73
2021/07/11 01:44:50;;;;;;;3.63;2.40;;;;;;;;;;478264;248;27540;-73
2021/07/11 01:46:52;;;;;;;2.97;2.77;;;;;;;;;;478256;248;27448;-73
2021/07/11 01:48:54;;;;;;;2.83;2.63;;;;;;;;;;478272;248;27548;-73
2021/07/11 01:50:57;;;;;;;2.77;2.57;;;;;;;;;;478240;248;27433;-73
2021/07/11 01:52:59;;;;;;;2.93;2.73;;;;;;;;;;478232;248;27435;-73
2021/07/11 01:55:02;;;;;;;2.90;2.63;;;;;;;;;;478207;248;27501;-72
2021/07/11 01:57:03;;;;;;;3.37;2.90;;;;;;;;;;478208;248;27509;-73
2021/07/11 01:59:05;;;;;;;3.70;3.00;;;;;;;;;;478257;248;27485;-74
2021/07/11 02:01:07;;;;;;;3.23;2.93;;;;;;;;;;478280;248;27413;-73
2021/07/11 02:03:09;;;;;;;3.03;2.83;;;;;;;;;;478270;248;27409;-73
2021/07/11 02:05:11;;;;;;;3.03;2.73;;;;;;;;;;478283;248;27425;-73
2021/07/11 02:07:14;;;;;;;3.23;2.93;;;;;;;;;;478243;248;27409;-74
2021/07/11 02:09:16;;;;;;;2.67;2.47;;;;;;;;;;478264;248;27562;-73
2021/07/11 02:11:18;;;;;;;2.90;2.50;;;;;;;;;;478273;246;27401;-73
2021/07/11 02:13:20;;;;;;;3.20;2.90;;;;;;;;;;478262;248;27408;-73
2021/07/11 02:15:22;;;;;;;4.57;2.43;;;;;;;;;;478278;248;27523;-73
2021/07/11 02:17:24;;;;;;;2.97;2.77;;;;;;;;;;478269;248;27417;-73
2021/07/11 02:19:26;;;;;;;2.90;2.70;;;;;;;;;;478270;245;27445;-73
2021/07/11 02:21:28;;;;;;;2.60;2.40;;;;;;;;;;478243;248;27461;-72
2021/07/11 02:23:30;;;;;;;5.00;3.00;;;;;;;;;;478242;248;27465;-72
2021/07/11 02:25:33;;;;;;;2.57;2.37;;;;;;;;;;478240;248;27417;-73
2021/07/11 02:27:35;;;;;;;2.50;2.33;;;;;;;;;;478240;248;27409;-72
2021/07/11 02:29:40;;;;;;;2.90;2.70;;;;;;;;;;478255;248;27424;-73
2021/07/11 02:31:42;;;;;;;2.33;2.23;;;;;;;;;;478088;248;27448;-73
2021/07/11 02:33:41;;;;;;;2.80;2.60;;;;;;;;;;478086;247;27464;-74
2021/07/11 02:35:43;;;;;;;2.60;2.40;;;;;;;;;;478265;248;27437;-73
2021/07/11 02:37:45;;;;;;;3.07;2.87;;;;;;;;;;478270;248;27524;-73
2021/07/11 02:39:47;;;;;;;2.53;2.33;;;;;;;;;;478249;248;27433;-73
2021/07/11 02:41:49;;;;;;;2.77;2.50;;;;;;;;;;478259;248;27457;-73
2021/07/11 02:43:52;;;;;;;2.70;2.43;;;;;;;;;;478247;248;27444;-73
2021/07/11 02:45:54;;;;;;;4.00;2.77;;;;;;;;;;478277;248;27469;-73
2021/07/11 02:47:56;;;;;;;2.43;2.23;;;;;;;;;;478264;248;27528;-72
2021/07/11 02:49:58;;;;;;;2.93;2.73;;;;;;;;;;478279;248;27429;-73
2021/07/11 02:52:00;;;;;;;2.60;2.40;;;;;;;;;;478262;248;27545;-72
2021/07/11 02:54:02;;;;;;;5.03;2.57;;;;;;;;;;477887;248;27581;-72
2021/07/11 02:56:04;;;;;;;2.30;2.20;;;;;;;;;;478224;248;27509;-73
2021/07/11 02:58:06;;;;;;;2.73;2.43;;;;;;;;;;478222;248;27472;-73
2021/07/11 03:00:08;;;;;;;3.00;2.80;;;;;;;;;;478242;248;27489;-73
2021/07/11 03:02:11;;;;;;;3.73;3.33;;;;;;;;;;478237;245;27429;-72
2021/07/11 03:04:13;;;;;;;3.20;3.00;;;;;;;;;;478267;248;27490;-72
2021/07/11 03:06:16;;;;;;;5.70;3.17;;;;;;;;;;478295;248;27505;-74
2021/07/11 03:08:17;;;;;;;3.20;2.90;;;;;;;;;;478236;248;27516;-73
2021/07/11 03:10:19;;;;;;;5.03;3.30;;;;;;;;;;478269;248;27481;-73
2021/07/11 03:12:21;;;;;;;3.30;3.00;;;;;;;;;;478260;246;27469;-74
2021/07/11 03:14:23;;;;;;;4.00;3.67;;;;;;;;;;478287;248;27429;-73
2021/07/11 03:16:25;;;;;;;3.40;3.20;;;;;;;;;;478250;248;27411;-73
2021/07/11 03:18:28;;;;;;;3.67;3.40;;;;;;;;;;478269;248;27536;-74
2021/07/11 03:20:30;;;;;;;3.83;3.53;;;;;;;;;;478235;248;27397;-73
2021/07/11 03:22:32;;;;;;;3.70;3.40;;;;;;;;;;478262;248;27525;-73
2021/07/11 03:24:34;;;;;;;3.13;2.93;;;;;;;;;;478268;245;27497;-73
2021/07/11 03:26:39;;;;;;;3.67;3.30;;;;;;;;;;478295;248;27567;-73
2021/07/11 03:28:38;;;;;;;4.07;3.67;;;;;;;;;;478135;248;27401;-73
2021/07/11 03:30:40;;;;;;;6.70;3.70;;;;;;;;;;478071;248;27406;-73
2021/07/11 03:32:42;;;;;;;3.50;3.20;;;;;;;;;;478228;248;27409;-72
2021/07/11 03:34:44;;;;;;;3.63;3.33;;;;;;;;;;478214;245;27756;-73
2021/07/11 03:36:47;;;;;;;12.13;4.83;;;;;;;;;;478286;248;27448;-72
2021/07/11 03:38:49;;;;;;;3.43;3.17;;;;;;;;;;478294;248;27476;-73
2021/07/11 03:40:51;;;;;;;3.70;3.40;;;;;;;;;;478259;248;27520;-73
2021/07/11 03:42:53;;;;;;;4.10;3.80;;;;;;;;;;478266;248;27449;-73
2021/07/11 03:44:55;;;;;;;3.23;3.03;;;;;;;;;;478272;248;27504;-73
2021/07/11 03:46:57;;;;;;;4.00;3.70;;;;;;;;;;478273;248;27627;-73
2021/07/11 03:48:59;;;;;;;4.17;3.77;;;;;;;;;;478274;248;27461;-73
2021/07/11 03:51:01;;;;;;;3.90;3.60;;;;;;;;;;478250;248;27452;-73
2021/07/11 03:53:04;;;;;;;4.20;3.80;;;;;;;;;;478229;248;27473;-74
2021/07/11 03:55:06;;;;;;;3.77;3.47;;;;;;;;;;478108;248;27567;-73
2021/07/11 03:57:08;;;;;;;5.40;4.00;;;;;;;;;;478177;248;27476;-73
2021/07/11 03:59:10;;;;;;;4.60;4.20;;;;;;;;;;478149;248;27568;-72
2021/07/11 04:01:12;;;;;;;4.00;3.70;;;;;;;;;;478233;248;27449;-73
2021/07/11 04:03:14;;;;;;;4.57;4.20;;;;;;;;;;478193;245;27453;-73
2021/07/11 04:05:16;;;;;;;5.13;3.67;;;;;;;;;;478234;245;27560;-73
2021/07/11 04:07:18;;;;;;;5.77;4.10;;;;;;;;;;478164;248;27430;-73
2021/07/11 04:09:20;;;;;;;4.90;4.50;;;;;;;;;;478227;248;27481;-73
2021/07/11 04:11:23;;;;;;;4.23;3.93;;;;;;;;;;478208;248;27536;-73
2021/07/11 04:13:25;;;;;;;5.60;4.50;;;;;;;;;;478282;248;27447;-73
2021/07/11 04:15:27;;;;;;;4.40;4.00;;;;;;;;;;478286;248;27464;-73
2021/07/11 04:17:29;;;;;;;4.20;3.90;;;;;;;;;;478290;248;27505;-73
2021/07/11 04:19:31;;;;;;;3.80;3.50;;;;;;;;;;478270;248;27421;-73
2021/07/11 04:21:33;;;;;;;3.50;3.23;;;;;;;;;;478266;248;27394;-73
2021/07/11 04:23:35;;;;;;;3.00;2.80;;;;;;;;;;478275;248;27516;-73
2021/07/11 04:25:41;;;;;;;4.50;4.00;;;;;;;;;;478289;248;27395;-73
2021/07/11 04:27:42;;;;;;;3.77;3.47;;;;;;;;;;478199;248;27548;-73
2021/07/11 04:29:44;;;;;;;3.90;3.50;;;;;;;;;;478282;248;28025;-73
2021/07/11 04:31:47;;;;;;;4.23;3.80;;;;;;;;;;478276;248;27461;-73
2021/07/11 04:33:49;;;;;;;6.77;3.57;;;;;;;;;;478259;248;27940;-73
2021/07/11 04:35:51;;;;;;;3.77;3.47;;;;;;;;;;478281;248;27444;-73
2021/07/11 04:37:53;;;;;;;4.03;3.73;;;;;;;;;;478304;248;27982;-73
2021/07/11 04:39:55;;;;;;;3.70;3.40;;;;;;;;;;478289;248;27461;-73
2021/07/11 04:41:57;;;;;;;4.60;3.90;;;;;;;;;;478278;248;28047;-73
2021/07/11 04:44:04;;;;;;;7.53;3.57;;;;;;;;;;478293;248;27468;-73
2021/07/11 04:46:01;;;;;;;4.20;3.90;;;;;;;;;;477631;248;28008;-73
2021/07/11 04:48:03;;;;;;;3.60;3.30;;;;;;;;;;478015;248;27441;-73
2021/07/11 04:50:06;;;;;;;3.83;3.53;;;;;;;;;;478271;248;27995;-74
2021/07/11 04:52:08;;;;;;;3.30;3.10;;;;;;;;;;478299;248;27421;-73
2021/07/11 04:54:10;;;;;;;3.40;3.10;;;;;;;;;;478279;248;27863;-73
2021/07/11 04:56:12;;;;;;;3.63;3.33;;;;;;;;;;478308;245;27501;-74
2021/07/11 04:58:14;;;;;;;3.93;3.53;;;;;;;;;;478302;248;27959;-73
2021/07/11 05:00:17;;;;;;;4.10;3.33;;;;;;;;;;478305;248;27424;-73
2021/07/11 05:02:18;;;;;;;3.60;3.30;;;;;;;;;;478250;248;28003;-73
2021/07/11 05:04:20;;;;;;;4.27;3.90;;;;;;;;;;478303;248;27468;-73
2021/07/11 05:06:22;;;;;;;3.70;3.40;;;;;;;;;;478287;248;27876;-73
2021/07/11 05:08:25;;;;;;;3.63;3.33;;;;;;;;;;478323;248;27508;-73
2021/07/11 05:10:27;;;;;;;3.70;3.40;;;;;;;;;;478282;245;27995;-73
2021/07/11 05:12:29;;;;;;;3.10;2.90;;;;;;;;;;478273;245;27416;-73
2021/07/11 05:14:31;;;;;;;3.40;3.10;;;;;;;;;;478259;248;27872;-73
2021/07/11 05:16:33;;;;;;;3.30;3.10;;;;;;;;;;478270;248;27434;-73
2021/07/11 05:18:35;;;;;;;3.43;3.17;;;;;;;;;;478264;248;27904;-73
2021/07/11 05:20:37;;;;;;;3.90;3.60;;;;;;;;;;478269;245;27460;-73
2021/07/11 05:22:39;;;;;;;3.80;3.50;;;;;;;;;;478308;248;28027;-73
2021/07/11 05:24:42;;;;;;;3.40;3.20;;;;;;;;;;478265;245;27457;-73
2021/07/11 05:26:44;;;;;;;4.43;3.37;;;;;;;;;;478288;248;27508;-73
2021/07/11 05:28:46;;;;;;;3.77;3.47;;;;;;;;;;478281;248;27548;-73
2021/07/11 05:30:48;;;;;;;3.60;3.30;;;;;;;;;;478203;248;27556;-73
2021/07/11 05:32:50;;;;;;;3.30;3.10;;;;;;;;;;477890;248;27463;-73
2021/07/11 05:34:52;;;;;;;3.13;2.93;;;;;;;;;;477184;248;28337;-73
2021/07/11 05:36:54;;;;;;;3.10;2.90;;;;;;;;;;477575;248;27492;-73
2021/07/11 05:38:56;;;;;;;3.87;3.57;;;;;;;;;;477953;248;28064;-73
2021/07/11 05:40:58;;;;;;;3.30;3.10;;;;;;;;;;478134;245;27457;-73
2021/07/11 05:43:01;;;;;;;3.80;3.27;;;;;;;;;;478253;248;28000;-73
2021/07/11 05:45:03;;;;;;;3.20;3.00;;;;;;;;;;478286;248;27488;-73
2021/07/11 05:47:05;;;;;;;3.00;2.80;;;;;;;;;;478242;248;28023;-73
2021/07/11 05:49:07;;;;;;;4.47;3.43;;;;;;;;;;478263;245;27457;-73
2021/07/11 05:51:09;;;;;;;3.83;3.53;;;;;;;;;;478265;248;27516;-73
2021/07/11 05:53:12;;;;;;;4.10;3.70;;;;;;;;;;478265;245;27463;-73
2021/07/11 05:55:13;;;;;;;4.10;3.80;;;;;;;;;;478226;248;27437;-73
2021/07/11 05:57:15;;;;;;;4.20;3.90;;;;;;;;;;478274;248;27425;-74
2021/07/11 05:59:17;;;;;;;5.10;4.17;;;;;;;;;;478270;248;27452;-73
2021/07/11 06:01:20;;;;;;;4.20;3.90;;;;;;;;;;478259;248;27507;-73
2021/07/11 06:03:22;;;;;;;3.70;3.40;;;;;;;;;;478264;246;27493;-73
2021/07/11 06:05:24;;;;;;;4.80;4.30;;;;;;;;;;478232;248;27425;-73
2021/07/11 06:07:26;;;;;;;8.83;4.07;;;;;;;;;;478292;248;27473;-73
2021/07/11 06:09:28;;;;;;;4.40;4.10;;;;;;;;;;478321;248;27420;-73
2021/07/11 06:11:30;;;;;;;4.77;4.37;;;;;;;;;;478264;248;27404;-73
2021/07/11 06:13:32;;;;;;;3.77;3.47;;;;;;;;;;478260;248;27528;-73
2021/07/11 06:15:34;;;;;;;4.27;3.90;;;;;;;;;;478272;248;27410;-73
2021/07/11 06:17:36;;;;;;;3.97;3.67;;;;;;;;;;478293;248;27445;-73
2021/07/11 06:19:39;;;;;;;3.93;3.63;;;;;;;;;;478293;248;27477;-73
2021/07/11 06:21:41;;;;;;;4.00;3.63;;;;;;;;;;478269;248;27404;-73
2021/07/11 06:23:43;;;;;;;3.67;3.37;;;;;;;;;;478296;248;27512;-73
2021/07/11 06:25:45;;;;;;;3.50;3.20;;;;;;;;;;478260;248;27448;-73
2021/07/11 06:27:47;;;;;;;4.20;3.80;;;;;;;;;;478274;248;27452;-73
2021/07/11 06:29:49;;;;;;;4.37;4.00;;;;;;;;;;478256;248;27516;-73
2021/07/11 06:31:51;;;;;;;5.53;4.13;;;;;;;;;;478273;248;27453;-73
2021/07/11 06:33:53;;;;;;;4.40;4.10;;;;;;;;;;478254;248;27528;-73
2021/07/11 06:35:56;;;;;;;4.60;4.20;;;;;;;;;;478250;248;27440;-73
2021/07/11 06:37:58;;;;;;;4.53;3.93;;;;;;;;;;475373;248;27474;-73
2021/07/11 06:40:00;;;;;;;5.60;4.50;;;;;;;;;;471288;252;27542;-73
2021/07/11 06:42:02;;;;;;;4.70;4.33;;;;;;;;;;466074;255;27579;-73
2021/07/11 06:44:04;;;;;;;5.80;4.53;;;;;;;;;;466099;254;27613;-73
2021/07/11 06:46:06;;;;;;;4.63;4.30;;;;;;;;;;466033;254;27577;-73
2021/07/11 06:48:08;;;;;;;4.80;4.40;;;;;;;;;;466086;254;27562;-73
2021/07/11 06:50:10;;;;;;;4.70;4.07;;;;;;;;;;466112;254;27697;-73
2021/07/11 06:52:12;;;;;;;4.53;4.13;;;;;;;;;;466098;254;27574;-73
2021/07/11 06:54:15;;;;;;;4.40;4.00;;;;;;;;;;466085;254;27673;-73
2021/07/11 06:56:17;;;;;;;4.43;4.07;;;;;;;;;;466090;254;27561;-73
2021/07/11 06:58:19;;;;;;;7.17;4.13;;;;;;;;;;466087;254;27577;-73
2021/07/11 07:00:21;;;;;;;4.53;4.13;;;;;;;;;;466113;254;27580;-72
2021/07/11 07:02:23;;;;;;;4.60;4.13;;;;;;;;;;466118;254;27585;-73
2021/07/11 07:04:25;;;;;;;6.03;3.87;;;;;;;;;;466107;254;27629;-73
2021/07/11 07:06:27;;;;;;;4.70;4.23;;;;;;;;;;466115;254;27594;-73
2021/07/11 07:08:29;;;;;;;4.60;4.20;;;;;;;;;;466113;254;27616;-73
2021/07/11 07:10:31;;;;;;;5.70;4.60;;;;;;;;;;466111;254;27617;-73
2021/07/11 07:12:34;;;;;;;4.23;3.93;;;;;;;;;;466113;254;27525;-73
2021/07/11 07:14:36;;;;;;;4.37;4.00;;;;;;;;;;466072;254;27533;-73
2021/07/11 07:16:38;;;;;;;4.80;4.37;;;;;;;;;;466096;254;27644;-73
2021/07/11 07:18:40;;;;;;;4.90;4.40;;;;;;;;;;466131;254;27550;-73
2021/07/11 07:20:42;;;;;;;5.00;4.50;;;;;;;;;;466111;254;27557;-73
2021/07/11 07:22:44;;;;;;;4.50;4.10;;;;;;;;;;466115;254;27582;-73
2021/07/11 07:24:46;;;;;;;4.57;4.17;;;;;;;;;;466107;254;27535;-73
2021/07/11 07:26:48;;;;;;;5.20;4.27;;;;;;;;;;466117;254;27534;-73
2021/07/11 07:28:50;;;;;;;4.60;4.20;;;;;;;;;;466094;254;27544;-73
2021/07/11 07:30:53;;;;;;;4.23;3.93;;;;;;;;;;466080;254;27577;-73
2021/07/11 07:32:55;;;;;;;4.60;4.13;;;;;;;;;;466141;254;27537;-73
2021/07/11 07:34:57;;;;;;;4.93;4.20;;;;;;;;;;466104;254;27623;-73
2021/07/11 07:36:59;;;;;;;4.50;4.20;;;;;;;;;;466092;254;27565;-73
2021/07/11 07:39:01;;;;;;;4.27;3.90;;;;;;;;;;465481;254;27576;-73
2021/07/11 07:41:03;;;;;;;4.13;3.83;;;;;;;;;;464695;255;27551;-74
2021/07/11 07:43:06;;;;;;;3.97;3.67;;;;;;;;;;464715;253;27538;-73
2021/07/11 07:45:07;;;;;;;5.80;4.00;;;;;;;;;;464716;253;27463;-74
2021/07/11 07:47:09;;;;;;;4.20;3.80;;;;;;;;;;464720;253;27470;-74
2021/07/11 07:49:12;;;;;;;4.00;3.43;;;;;;;;;;464711;254;27482;-74
2021/07/11 07:51:14;;;;;;;3.53;3.33;;;;;;;;;;464737;253;27460;-73
2021/07/11 07:53:16;;;;;;;4.00;3.63;;;;;;;;;;464719;253;27471;-73
2021/07/11 07:55:18;;;;;;;4.00;3.70;;;;;;;;;;464678;256;27528;-73
2021/07/11 07:57:20;;;;;;;6.43;3.23;;;;;;;;;;464724;253;27538;-73
2021/07/11 07:59:22;;;;;;;5.37;2.90;;;;;;;;;;464680;253;27478;-73
2021/07/11 08:01:24;;;;;;;3.77;3.30;;;;;;;;;;464707;255;27538;-74
2021/07/11 08:03:26;;;;;;;3.90;3.60;;;;;;;;;;464681;256;27475;-73
2021/07/11 08:05:29;;;;;;;3.30;3.10;;;;;;;;;;464696;253;27467;-73
2021/07/11 08:07:31;;;;;;;5.53;3.40;;;;;;;;;;464705;255;27558;-73
2021/07/11 08:09:33;;;;;;;3.83;3.47;;;;;;;;;;464691;255;27448;-74
2021/07/11 08:11:35;;;;;;;4.23;3.90;;;;;;;;;;464699;253;27483;-73
2021/07/11 08:13:37;;;;;;;4.40;4.00;;;;;;;;;;464670;255;27513;-73
2021/07/11 08:15:39;;;;;;;3.83;3.53;;;;;;;;;;464696;253;27427;-73
2021/07/11 08:17:41;;;;;;;4.17;3.77;;;;;;;;;;464703;255;27487;-73
2021/07/11 08:19:43;;;;;;;3.33;3.13;;;;;;;;;;464711;253;27444;-74
2021/07/11 08:21:45;;;;;;;4.17;3.87;;;;;;;;;;464653;256;27420;-73
2021/07/11 08:23:48;;;;;;;3.70;3.40;;;;;;;;;;464684;253;27547;-74
2021/07/11 08:25:50;;;;;;;4.40;4.00;;;;;;;;;;464686;255;27507;-73
2021/07/11 08:27:52;;;;;;;4.13;3.60;;;;;;;;;;464720;255;27458;-73
2021/07/11 08:29:54;;;;;;;5.23;4.73;;;;;;;;;;464703;255;27439;-73
2021/07/11 08:31:56;;;;;;;4.50;4.10;;;;;;;;;;464722;253;27434;-74
2021/07/11 08:33:58;;;;;;;4.83;4.43;;;;;;;;;;464698;255;27546;-73
2021/07/11 08:36:00;;;;;;;6.30;4.37;;;;;;;;;;464693;253;27432;-73
2021/07/11 08:38:02;;;;;;;4.43;4.13;;;;;;;;;;464693;255;27483;-74
2021/07/11 08:40:04;;;;;;;5.20;4.80;;;;;;;;;;464690;255;27444;-73
2021/07/11 08:42:07;;;;;;;5.30;4.80;;;;;;;;;;464683;255;27474;-74
2021/07/11 08:44:09;;;;;;;4.90;4.40;;;;;;;;;;464692;253;27487;-73
2021/07/11 08:46:11;;;;;;;5.60;5.10;;;;;;;;;;464628;255;27462;-73
2021/07/11 08:48:13;;;;;;;5.30;4.80;;;;;;;;;;464671;255;27530;-73
2021/07/11 08:50:15;;;;;;;5.80;5.30;;;;;;;;;;464683;253;27478;-74
2021/07/11 08:52:17;;;;;;;5.40;5.00;;;;;;;;;;464668;253;27561;-74
2021/07/11 08:54:19;;;;;;;5.47;5.00;;;;;;;;;;464684;253;27575;-74
2021/07/11 08:56:21;;;;;;;5.73;5.20;;;;;;;;;;464713;254;27481;-73
2021/07/11 08:58:23;;;;;;;5.00;4.57;;;;;;;;;;464652;254;27532;-74
2021/07/11 09:00:26;;;;;;;6.40;5.40;;;;;;;;;;464693;255;27503;-73
2021/07/11 09:02:28;;;;;;;4.90;4.50;;;;;;;;;;464700;253;27491;-74
2021/07/11 09:04:30;;;;;;;5.00;4.60;;;;;;;;;;464688;253;27471;-74
2021/07/11 09:06:32;;;;;;;5.43;5.00;;;;;;;;;;464698;255;27424;-73
2021/07/11 09:08:34;;;;;;;4.93;4.53;;;;;;;;;;464696;255;27475;-74
2021/07/11 09:10:36;;;;;;;4.83;4.40;;;;;;;;;;464728;253;27459;-74
2021/07/11 09:12:38;;;;;;;5.50;4.93;;;;;;;;;;464716;255;27476;-74
2021/07/11 09:14:40;;;;;;;5.80;5.27;;;;;;;;;;464696;253;27545;-73
2021/07/11 09:16:43;;;;;;;5.10;4.70;;;;;;;;;;464708;253;27467;-73
2021/07/11 09:18:45;;;;;;;4.77;4.37;;;;;;;;;;464703;254;27474;-73
2021/07/11 09:20:47;;;;;;;4.53;4.13;;;;;;;;;;464694;255;27476;-73
2021/07/11 09:22:49;;;;;;;4.70;4.30;;;;;;;;;;464680;253;27463;-73
2021/07/11 09:24:53;;;;;;;4.70;4.30;;;;;;;;;;464634;255;27456;-73
2021/07/11 09:26:54;;;;;;;5.30;4.70;;;;;;;;;;464634;253;27496;-74
2021/07/11 09:28:55;;;;;;;4.50;4.10;;;;;;;;;;464705;253;27442;-74
2021/07/11 09:30:57;;;;;;;4.13;3.83;;;;;;;;;;464683;253;27442;-73
2021/07/11 09:32:59;;;;;;;4.27;3.83;;;;;;;;;;464705;255;27451;-73
2021/07/11 09:35:02;;;;;;;4.00;3.60;;;;;;;;;;464698;253;27419;-74
2021/07/11 09:37:04;;;;;;;3.90;3.60;;;;;;;;;;464711;253;27428;-74
2021/07/11 09:39:06;;;;;;;3.87;3.43;;;;;;;;;;464699;255;27952;-73
2021/07/11 09:41:08;;;;;;;3.73;3.43;;;;;;;;;;468426;252;27542;-73
2021/07/11 09:43:10;;;;;;;3.23;3.03;;;;;;;;;;473518;250;27885;-74
2021/07/11 09:45:12;;;;;;;3.40;3.20;;;;;;;;;;473527;250;27514;-73
2021/07/11 09:47:14;;;;;;;3.40;3.10;;;;;;;;;;473505;250;27915;-74
2021/07/11 09:49:16;;;;;;;4.23;3.40;;;;;;;;;;473528;250;27530;-74
2021/07/11 09:51:18;;;;;;;3.00;2.80;;;;;;;;;;473511;250;27966;-74
2021/07/11 09:53:21;;;;;;;3.33;3.13;;;;;;;;;;473481;251;27519;-74
2021/07/11 09:55:23;;;;;;;4.10;3.00;;;;;;;;;;473496;250;27520;-73
2021/07/11 09:57:25;;;;;;;3.43;3.17;;;;;;;;;;473562;250;27452;-73
2021/07/11 09:59:27;;;;;;;3.30;3.00;;;;;;;;;;473459;250;27918;-74
2021/07/11 10:01:29;;;;;;;2.93;2.73;;;;;;;;;;473516;250;27454;-74
2021/07/11 10:03:31;;;;;;;5.40;3.00;;;;;;;;;;473426;250;28008;-73
2021/07/11 10:05:33;;;;;;;3.17;2.93;;;;;;;;;;473542;250;27571;-74
2021/07/11 10:07:35;;;;;;;3.70;3.17;;;;;;;;;;473510;250;27921;-74
2021/07/11 10:09:37;;;;;;;3.40;3.20;;;;;;;;;;473483;250;27482;-73
2021/07/11 10:11:40;;;;;;;2.90;2.70;;;;;;;;;;473481;250;28022;-74
2021/07/11 10:13:42;;;;;;;3.20;3.00;;;;;;;;;;473493;250;27569;-74
2021/07/11 10:15:44;;;;;;;2.47;2.37;;;;;;;;;;473515;250;28057;-74
2021/07/11 10:17:46;;;;;;;2.97;2.77;;;;;;;;;;473525;250;27481;-74
2021/07/11 10:19:48;;;;;;;2.70;2.50;;;;;;;;;;473504;250;28054;-73
2021/07/11 10:21:50;;;;;;;3.00;2.80;;;;;;;;;;473514;250;27486;-73
2021/07/11 10:23:52;;;;;;;2.47;2.37;;;;;;;;;;473499;251;28088;-73
2021/07/11 10:25:54;;;;;;;2.73;2.53;;;;;;;;;;473522;250;27535;-74
2021/07/11 10:27:56;;;;;;;2.37;2.27;;;;;;;;;;473455;250;27986;-74
2021/07/11 10:29:59;;;;;;;2.30;2.20;;;;;;;;;;473516;250;27549;-74
2021/07/11 10:32:01;;;;;;;2.70;2.37;;;;;;;;;;473487;250;28042;-74
2021/07/11 10:34:03;;;;;;;2.60;2.40;;;;;;;;;;473223;250;27478;-74
2021/07/11 10:36:05;;;;;;;2.70;2.53;;;;;;;;;;473404;250;28020;-73
2021/07/11 10:38:07;;;;;;;2.20;2.10;;;;;;;;;;473516;250;27475;-74
2021/07/11 10:40:09;;;;;;;2.37;2.27;;;;;;;;;;473490;250;27919;-74
2021/07/11 10:42:11;;;;;;;2.70;2.30;;;;;;;;;;473493;250;27465;-74
2021/07/11 10:44:13;;;;;;;2.73;2.53;;;;;;;;;;473474;251;27912;-74
2021/07/11 10:46:16;;;;;;;2.60;2.40;;;;;;;;;;473509;251;27531;-74
2021/07/11 10:48:18;;;;;;;2.43;2.33;;;;;;;;;;473528;250;27894;-74
2021/07/11 10:50:20;;;;;;;2.17;2.07;;;;;;;;;;473502;250;27559;-73
2021/07/11 10:52:22;;;;;;;2.10;2.00;;;;;;;;;;473508;250;28056;-74
2021/07/11 10:54:26;;;;;;;2.90;2.70;;;;;;;;;;473492;251;27439;-74
2021/07/11 10:56:26;;;;;;;2.80;2.60;;;;;;;;;;473396;251;28025;-73
2021/07/11 10:58:28;;;;;;;2.30;2.20;;;;;;;;;;473505;250;27483;-74
2021/07/11 11:00:30;;;;;;;2.90;2.70;;;;;;;;;;473442;250;27962;-74
2021/07/11 11:02:32;;;;;;;2.67;2.47;;;;;;;;;;473513;250;27435;-73
2021/07/11 11:04:35;;;;;;;2.30;2.20;;;;;;;;;;473508;250;27979;-73
2021/07/11 11:06:37;;;;;;;2.53;2.33;;;;;;;;;;473491;250;27519;-74
2021/07/11 11:08:39;;;;;;;2.40;2.27;;;;;;;;;;473482;251;27973;-74
2021/07/11 11:10:41;;;;;;;2.77;2.57;;;;;;;;;;473499;250;27478;-74
2021/07/11 11:12:43;;;;;;;2.60;2.50;;;;;;;;;;473491;250;27911;-74
2021/07/11 11:14:45;;;;;;;2.07;1.97;;;;;;;;;;473479;250;27546;-74
2021/07/11 11:16:49;;;;;;;3.50;2.40;;;;;;;;;;473491;250;27987;-74
2021/07/11 11:18:49;;;;;;;2.20;2.10;;;;;;;;;;473434;251;27431;-74
2021/07/11 11:20:51;;;;;;;2.17;2.07;;;;;;;;;;473478;250;28649;-74
2021/07/11 11:22:54;;;;;;;2.50;2.30;;;;;;;;;;473486;250;27523;-74
2021/07/11 11:24:58;;;;;;;1.97;1.87;;;;;;;;;;473471;251;28124;-74
2021/07/11 11:26:59;;;;;;;1.93;1.83;;;;;;;;;;473399;251;27478;-74
2021/07/11 11:29:00;;;;;;;2.13;2.03;;;;;;;;;;473437;251;27934;-74
2021/07/11 11:31:02;;;;;;;2.10;2.00;;;;;;;;;;473513;250;27465;-74
2021/07/11 11:33:04;;;;;;;2.23;2.13;;;;;;;;;;473490;250;27948;-74
2021/07/11 11:35:06;;;;;;;1.93;1.83;;;;;;;;;;473502;250;27470;-74
2021/07/11 11:37:08;;;;;;;2.27;2.13;;;;;;;;;;473500;251;27950;-74
2021/07/11 11:39:11;;;;;;;1.97;1.87;;;;;;;;;;473491;249;27542;-74
2021/07/11 11:41:13;;;;;;;1.87;1.73;;;;;;;;;;473491;250;28056;-74
2021/07/11 11:43:17;;;;;;;1.90;1.80;;;;;;;;;;473788;251;27576;-73
2021/07/11 11:45:17;;;;;;;1.90;1.80;;;;;;;;;;474579;250;27990;-73
2021/07/11 11:47:19;;;;;;;1.77;1.67;;;;;;;;;;489438;242;27506;-74
2021/07/11 11:49:21;;;;;;;1.70;1.60;;;;;;;;;;489474;242;27994;-74
2021/07/11 11:51:23;;;;;;;7.23;1.73;;;;;;;;;;489468;242;27507;-73
2021/07/11 11:53:25;;;;;;;1.47;1.40;;;;;;;;;;489465;242;27883;-74
2021/07/11 11:55:28;;;;;;;3.60;1.60;;;;;;;;;;489403;242;27506;-73
2021/07/11 11:57:29;;;;;;;1.90;1.80;;;;;;;;;;489212;242;27982;-74
2021/07/11 11:59:32;;;;;;;1.50;1.50;;;;;;;;;;489405;242;27569;-74
2021/07/11 12:01:34;;;;;;;1.60;1.50;;;;;;;;;;489405;242;27839;-74
2021/07/11 12:03:39;;;;;;;1.53;1.43;;;;;;;;;;489417;242;27374;-74
2021/07/11 12:05:41;;;;;;;1.73;1.63;;;;;;;;;;489453;242;27522;-74
2021/07/11 12:07:43;;;;;;;1.57;1.47;;;;;;;;;;489436;242;28034;-74
2021/07/11 12:09:45;;;;;;;1.70;1.60;;;;;;;;;;489444;242;27483;-74
2021/07/11 12:11:47;;;;;;;1.70;1.60;;;;;;;;;;489433;242;28107;-74